Kezdőlap
METAR-TAF:

METAR-TAF

Repülőterek :

Regional_Airport

Clinton, Oklahoma, Amerikai Egyesült Államok

földrajzi szélesség: 35-32-17N, földrajzi hosszúság: 098-55-17W, magasság: 492 m

Jelenlegi meteorológiai megfigyelések

A jelentés 38 perccel ezelõtt készült, 19:55 UTC
Déli szél 17 kt széllökések: 23 kt
Hőmérséklet 33°C
Páratartalom 34%
Légköri nyomás 1012 hPa
Látótávolság: 16.1 km
Szórványos felhőzet 6000 lábon

METAR: KCLK 151955Z AUTO 19017G23KT 10SM SCT060 33/15 A2988 RMK AO2

Idő: 15:33 (20:33 UTC)


TAF: hiányzik

Meteorológiai megfigyelések és előrejelzések több, mint 4000 repülőtéren (METAR és TAF jelentéseket).

A térképen piros és sárga pontok jelzik az elérhető meteorológiai állomásokat.

Mozgassa az egeret a pont fölött, hogy megjelenjen az állomás neve.

Azután kattintson az időjárási megfigyelések és előrejelzések megtekintéséhez.

A térkép megváltoztatása: kattintson a fekete keresztel jelölt zöld gombra ráközelítéshez, a vonallal jelölt zöld gombra távolításhoz, vagy a zöld nyilakra a szomszédos térképek eléréséhez.


METAR-TAF: